Time;durP1;ratioP1;P1;durP2;ratioP2;P2;SDS_P1;SDS_P2;PMS_P1;PMS_P2;Temp;Humidity;BMP_temperature;BMP_pressure;BME280_temperature;BME280_humidity;BME280_pressure;Samples;Min_cycle;Max_cycle;Signal;HPM_P1;HPM_P2
2022/10/21 04:16:57;;;;;;;43.17;22.20;;;;;;;2.17;100.00;101129.91;5594684;31;287835;-89
2022/10/21 04:20:09;;;;;;;44.40;24.50;;;;;;;2.17;100.00;101129.91;5583597;31;34045;-89
2022/10/21 04:23:11;;;;;;;41.72;23.95;;;;;;;1.68;100.00;101125.59;5583436;32;33656;-89
2022/10/21 04:26:14;;;;;;;44.00;23.48;;;;;;;1.66;100.00;101130.81;5583816;32;34510;-89
2022/10/21 04:29:17;;;;;;;39.70;22.08;;;;;;;1.70;100.00;101121.22;5583336;32;34295;-89
2022/10/21 04:32:19;;;;;;;36.15;21.58;;;;;;;1.72;100.00;101122.97;5583530;32;33486;-89
2022/10/21 04:35:22;;;;;;;36.95;19.90;;;;;;;1.72;100.00;101122.13;5582891;31;34334;-89
2022/10/21 04:38:25;;;;;;;34.05;18.83;;;;;;;1.75;100.00;101124.72;5583295;32;36090;-92
2022/10/21 04:41:28;;;;;;;33.08;19.75;;;;;;;1.75;100.00;101116.88;5582585;32;33715;-91
2022/10/21 04:44:31;;;;;;;32.85;19.10;;;;;;;1.75;100.00;101120.38;5595258;32;35259;-92
2022/10/21 04:47:33;;;;;;;34.53;19.30;;;;;;;1.74;100.00;101115.13;5570025;32;33211;-93
2022/10/21 04:50:36;;;;;;;32.58;19.10;;;;;;;1.76;100.00;101105.53;5564400;32;33665;-90
2022/10/21 04:53:38;;;;;;;31.87;18.48;;;;;;;1.78;100.00;101095.06;5563263;32;34002;-89
2022/10/21 04:56:42;;;;;;;28.75;17.62;;;;;;;1.82;100.00;101097.66;5563552;32;33460;-89
2022/10/21 04:59:52;;;;;;;31.80;19.05;;;;;;;1.87;100.00;101093.31;5610198;26;33682;-86
2022/10/21 05:02:59;;;;;;;31.40;18.17;;;;;;;1.94;100.00;101096.78;5628772;26;32017;-88
2022/10/21 05:06:01;;;;;;;33.25;17.75;;;;;;;1.96;100.00;101087.19;5597630;31;33932;-87
2022/10/21 05:09:05;;;;;;;31.85;17.37;;;;;;;1.98;100.00;101088.06;5588319;32;35249;-89
2022/10/21 05:12:08;;;;;;;30.45;18.90;;;;;;;2.15;100.00;101098.47;5583559;32;33748;-89
2022/10/21 05:15:12;;;;;;;30.05;18.55;;;;;;;2.32;100.00;101092.31;5585632;31;33731;-87
2022/10/21 05:18:14;;;;;;;33.08;17.98;;;;;;;2.35;100.00;101105.38;5577408;31;32772;-88
2022/10/21 05:21:17;;;;;;;31.77;18.33;;;;;;;2.44;100.00;101107.09;5593208;31;33686;-87
2022/10/21 05:24:19;;;;;;;28.75;18.45;;;;;;;2.49;100.00;101104.44;5574522;32;32850;-87
2022/10/21 05:27:22;;;;;;;28.20;17.50;;;;;;;2.52;100.00;101107.06;5581019;32;33699;-88
2022/10/21 05:30:24;;;;;;;30.00;17.87;;;;;;;2.56;100.00;101098.31;5564257;32;34743;-88
2022/10/21 05:33:27;;;;;;;30.25;17.95;;;;;;;2.57;100.00;101094.84;5553440;32;33615;-88
2022/10/21 05:36:30;;;;;;;27.00;16.77;;;;;;;2.61;100.00;101086.06;5541339;32;34671;-87
2022/10/21 05:39:32;;;;;;;30.73;17.52;;;;;;;2.66;100.00;101080.81;5547545;32;33062;-87
2022/10/21 05:42:35;;;;;;;26.77;16.90;;;;;;;2.74;100.00;101086.00;5561400;32;33628;-88
2022/10/21 05:45:38;;;;;;;25.98;16.65;;;;;;;2.93;100.00;101103.34;5577706;31;33512;-87
2022/10/21 05:48:41;;;;;;;28.00;16.33;;;;;;;3.02;100.00;101118.13;5572062;31;33624;-88
2022/10/21 05:51:44;;;;;;;28.62;16.35;;;;;;;3.16;100.00;101112.81;5553863;32;32467;-88
2022/10/21 05:54:47;;;;;;;26.08;16.60;;;;;;;3.24;100.00;101111.00;5552916;32;33941;-88
2022/10/21 05:57:50;;;;;;;28.75;16.52;;;;;;;3.26;100.00;101092.62;5544028;32;33012;-88
2022/10/21 06:00:55;;;;;;;25.52;16.95;;;;;;;3.27;100.00;101085.66;5563008;32;33825;-87
2022/10/21 06:03:58;;;;;;;27.58;16.95;;;;;;;3.30;100.00;101102.22;5559944;32;32610;-86
2022/10/21 06:07:01;;;;;;;28.20;17.23;;;;;;;3.31;100.00;101116.19;5558247;32;34423;-85
2022/10/21 06:10:06;;;;;;;29.95;16.45;;;;;;;3.39;100.00;101130.12;5548701;32;34277;-86
2022/10/21 06:13:09;;;;;;;27.48;16.58;;;;;;;3.52;100.00;101132.66;5565837;32;34683;-85
2022/10/21 06:16:13;;;;;;;30.40;16.80;;;;;;;3.56;100.00;101155.37;5572906;32;33588;-85
2022/10/21 06:19:16;;;;;;;31.95;16.55;;;;;;;3.64;100.00;101153.56;5557174;32;31371;-86
2022/10/21 06:22:19;;;;;;;28.27;16.33;;;;;;;3.75;100.00;101142.94;5576231;32;33925;-85
2022/10/21 06:25:22;;;;;;;26.98;15.93;;;;;;;3.77;100.00;101149.94;5565952;32;33738;-85
2022/10/21 06:28:27;;;;;;;23.23;15.48;;;;;;;3.81;100.00;101142.91;5552235;32;33704;-85
2022/10/21 06:31:29;;;;;;;28.05;15.18;;;;;;;3.96;100.00;101136.62;5553272;32;33946;-86
2022/10/21 06:34:32;;;;;;;24.90;15.50;;;;;;;3.97;100.00;101143.62;5544545;32;32864;-85
2022/10/21 06:37:42;;;;;;;34.72;15.50;;;;;;;4.12;100.00;101147.00;5578829;32;33989;-88
2022/10/21 06:41:03;;;;;;;29.65;14.35;;;;;;;4.21;100.00;101148.66;5556695;32;35136;-85
2022/10/21 06:44:12;;;;;;;46.42;15.77;;;;;;;4.45;100.00;101150.12;5570666;32;34323;-85
2022/10/21 06:47:16;;;;;;;28.25;14.23;;;;;;;4.58;100.00;101162.22;5556764;32;32771;-86
2022/10/21 06:50:18;;;;;;;25.23;14.07;;;;;;;4.78;100.00;101166.34;5562911;32;34005;-86
2022/10/21 06:53:21;;;;;;;25.17;13.73;;;;;;;4.82;100.00;101160.19;5554590;32;32679;-87
2022/10/21 06:56:26;;;;;;;24.40;14.80;;;;;;;4.84;100.00;101153.13;5555566;32;32739;-86
2022/10/21 06:59:29;;;;;;;27.02;14.52;;;;;;;4.74;100.00;101150.66;5556461;32;33562;-85
2022/10/21 07:02:32;;;;;;;25.37;13.80;;;;;;;4.72;100.00;101140.16;5553961;32;33870;-86
2022/10/21 07:05:34;;;;;;;22.25;13.80;;;;;;;4.81;100.00;101139.16;5555011;32;33995;-85
2022/10/21 07:08:38;;;;;;;30.90;15.40;;;;;;;5.01;100.00;101125.75;5571027;32;32779;-87
2022/10/21 07:12:00;;;;;;;30.52;13.45;;;;;;;5.16;100.00;101124.66;5585919;32;34112;-86
2022/10/21 07:15:05;;;;;;;26.27;13.90;;;;;;;5.56;100.00;101124.87;5569044;32;34147;-86
2022/10/21 07:18:08;;;;;;;22.67;12.30;;;;;;;6.10;100.00;101142.44;5558709;32;34496;-88
2022/10/21 07:21:16;;;;;;;31.20;13.07;;;;;;;6.37;100.00;101134.00;5563503;32;34504;-87
2022/10/21 07:24:18;;;;;;;18.85;12.18;;;;;;;6.62;100.00;101144.91;5565848;32;35148;-87
2022/10/21 07:27:24;;;;;;;16.70;11.48;;;;;;;7.17;100.00;101141.97;5579081;32;34074;-86
2022/10/21 07:30:27;;;;;;;16.37;11.30;;;;;;;7.78;98.00;101149.28;5578562;32;36322;-86
2022/10/21 07:33:30;;;;;;;14.45;9.55;;;;;;;8.66;91.96;101147.84;5573387;32;33576;-86
2022/10/21 07:36:36;;;;;;;13.77;10.20;;;;;;;9.95;82.51;101148.16;5561429;32;34064;-87
2022/10/21 07:39:39;;;;;;;17.87;10.40;;;;;;;10.30;76.44;101156.66;5561910;32;33796;-87
2022/10/21 07:42:42;;;;;;;15.45;10.15;;;;;;;10.08;79.21;101151.28;5560132;32;32886;-86
2022/10/21 07:45:44;;;;;;;13.23;9.88;;;;;;;10.00;76.62;101153.34;5569152;32;35017;-86
2022/10/21 07:48:48;;;;;;;14.55;9.93;;;;;;;10.51;74.40;101148.87;5574798;32;33924;-86
2022/10/21 07:51:52;;;;;;;12.63;9.65;;;;;;;10.21;76.44;101149.06;5562666;32;35007;-87
2022/10/21 07:54:55;;;;;;;14.40;10.10;;;;;;;10.56;71.85;101136.31;5561789;32;33942;-86
2022/10/21 07:57:58;;;;;;;18.60;10.50;;;;;;;10.58;74.27;101141.56;5566779;32;34804;-86
2022/10/21 08:01:04;;;;;;;12.82;9.55;;;;;;;10.43;76.11;101145.66;5557101;32;33929;-86
2022/10/21 08:04:07;;;;;;;15.60;10.25;;;;;;;10.41;74.80;101116.50;5556372;32;34478;-86
2022/10/21 08:07:09;;;;;;;16.00;9.93;;;;;;;10.24;74.11;101130.38;5564089;32;33967;-86
2022/10/21 08:10:15;;;;;;;20.90;10.57;;;;;;;10.17;75.96;101120.91;5561168;32;34769;-86
2022/10/21 08:13:18;;;;;;;13.43;10.18;;;;;;;10.19;76.62;101106.69;5554296;32;33916;-86
2022/10/21 08:16:21;;;;;;;18.98;10.18;;;;;;;10.62;74.01;101100.75;5543950;32;32564;-86
2022/10/21 08:19:28;;;;;;;13.02;10.18;;;;;;;10.70;70.65;101090.69;5552843;32;34535;-86
2022/10/21 08:22:31;;;;;;;14.63;9.80;;;;;;;10.43;73.19;101101.44;5537228;32;33912;-85
2022/10/21 08:25:34;;;;;;;12.98;9.80;;;;;;;11.58;69.46;101090.72;5550449;32;34044;-86
2022/10/21 08:28:36;;;;;;;15.27;9.95;;;;;;;12.58;65.53;101083.69;5556288;32;34571;-87
2022/10/21 08:31:39;;;;;;;12.32;9.45;;;;;;;14.13;58.64;101077.84;5560178;32;35264;-90
2022/10/21 08:34:43;;;;;;;15.65;9.90;;;;;;;13.68;59.34;101074.84;5556142;32;33858;-89
2022/10/21 08:37:47;;;;;;;13.57;9.63;;;;;;;13.50;59.68;101077.50;5551931;32;33723;-87
2022/10/21 08:40:50;;;;;;;13.73;9.30;;;;;;;12.16;62.36;101078.47;5566133;32;34062;-86
2022/10/21 08:44:06;;;;;;;13.38;9.25;;;;;;;11.41;67.60;101071.03;5558400;32;34310;-86
2022/10/21 08:47:27;;;;;;;18.83;8.90;;;;;;;11.35;69.48;101076.59;5553042;32;32909;-86
2022/10/21 08:50:37;;;;;;;17.00;9.30;;;;;;;11.67;66.27;101070.84;5558738;32;34656;-87
2022/10/21 08:53:46;;;;;;;18.90;9.27;;;;;;;11.80;67.30;101060.53;5558844;32;34550;-86
2022/10/21 08:56:54;;;;;;;13.02;9.10;;;;;;;11.76;67.38;101053.66;5550465;32;34376;-86
2022/10/21 08:59:56;;;;;;;12.93;8.38;;;;;;;11.94;67.44;101050.19;5562440;32;33796;-85
2022/10/21 09:03:02;;;;;;;12.55;9.10;;;;;;;11.50;67.94;101052.97;5568001;32;33515;-85
2022/10/21 09:06:26;;;;;;;11.95;8.40;;;;;;;11.84;67.01;101036.44;5558080;32;32792;-87
2022/10/21 09:09:41;;;;;;;11.35;9.15;;;;;;;12.10;65.09;101038.88;5553870;32;32125;-85
2022/10/21 09:13:00;;;;;;;12.00;7.97;;;;;;;12.22;66.03;101030.31;5571434;32;34831;-85
2022/10/21 09:16:24;;;;;;;14.00;8.07;;;;;;;12.57;63.80;101034.06;5570169;32;34436;-86
2022/10/21 09:20:01;;;;;;;10.68;7.20;;;;;;;12.93;64.71;101030.56;5568327;32;33875;-89
2022/10/21 09:23:32;;;;;;;10.27;7.05;;;;;;;12.79;61.66;101029.41;5567380;32;34106;-86
2022/10/21 09:27:00;;;;;;;11.23;8.05;;;;;;;12.56;61.61;101014.56;5556416;32;35573;-86
2022/10/21 09:30:22;;;;;;;8.45;5.62;;;;;;;12.49;64.13;101023.78;5573567;32;34616;-86
2022/10/21 09:33:33;;;;;;;13.20;5.90;;;;;;;12.39;60.47;101016.22;5567269;32;34724;-85
2022/10/21 09:36:46;;;;;;;8.65;5.22;;;;;;;12.47;61.64;101015.88;5562276;32;34961;-86
2022/10/21 09:40:23;;;;;;;13.62;5.65;;;;;;;12.50;60.85;101010.41;5541353;32;34156;-86
2022/10/21 09:43:26;;;;;;;6.15;5.10;;;;;;;12.12;61.30;101002.44;5547184;32;33880;-90
2022/10/21 09:46:29;;;;;;;10.85;5.37;;;;;;;12.88;59.23;100992.66;5554010;32;35328;-90
2022/10/21 09:49:35;;;;;;;5.72;4.87;;;;;;;12.56;58.19;100987.09;5566508;32;33812;-87
2022/10/21 09:53:22;;;;;;;8.13;4.32;;;;;;;12.40;59.34;100985.16;5562517;32;34205;-86
2022/10/21 09:57:02;;;;;;;11.75;5.32;;;;;;;12.39;59.81;100978.12;5567780;31;34863;-86
2022/10/21 10:00:05;;;;;;;8.13;4.62;;;;;;;12.13;60.36;100970.44;5556555;32;33402;-86
2022/10/21 10:03:47;;;;;;;5.37;4.57;;;;;;;12.43;59.57;100970.84;5556442;32;34184;-87
2022/10/21 10:06:50;;;;;;;6.87;5.05;;;;;;;12.35;59.58;100964.12;5551244;32;33502;-87
2022/10/21 10:09:53;;;;;;;13.15;4.78;;;;;;;12.22;61.01;100957.66;5542047;32;33059;-86
2022/10/21 10:12:58;;;;;;;8.82;4.82;;;;;;;11.75;60.01;100949.13;5551921;32;32633;-86
2022/10/21 10:16:17;;;;;;;8.05;4.90;;;;;;;11.97;61.27;100956.97;5565749;32;33608;-86
2022/10/21 10:37:57;;;;;;;9.20;4.57;;;;;;;12.48;56.80;100927.12;2345204;30;20104;-86
2022/10/21 10:41:13;;;;;;;6.65;4.00;;;;;;;12.04;57.86;100917.69;5453051;32;32828;-86
2022/10/21 10:44:32;;;;;;;7.45;4.47;;;;;;;12.33;58.58;100911.91;5467555;32;33985;-87
2022/10/21 10:47:46;;;;;;;6.05;4.40;;;;;;;12.66;56.75;100919.16;5465986;32;34072;-87
2022/10/21 10:50:50;;;;;;;12.52;4.32;;;;;;;12.78;55.95;100909.72;5444916;32;33079;-87
2022/10/21 10:54:15;;;;;;;7.12;4.40;;;;;;;12.53;57.00;100897.63;5455952;32;33551;-84
2022/10/21 10:57:22;;;;;;;9.30;4.22;;;;;;;13.03;56.30;100896.00;5464176;32;33501;-83
2022/10/21 11:00:51;;;;;;;;;;;;;;;13.20;56.91;100881.81;5471574;32;34186;-84
2022/10/21 11:04:03;;;;;;;5.53;4.10;;;;;;;13.43;55.62;100876.19;5464050;32;34325;-84
2022/10/21 11:07:06;;;;;;;7.37;4.57;;;;;;;13.61;54.55;100863.69;5458508;32;34445;-88
2022/10/21 11:10:32;;;;;;;8.65;4.15;;;;;;;13.40;54.49;100858.56;5444425;32;32634;-89
2022/10/21 11:13:37;;;;;;;6.18;3.97;;;;;;;13.12;55.10;100867.16;5469440;32;34463;-83
2022/10/21 11:16:54;;;;;;;6.32;4.32;;;;;;;13.10;55.49;100866.38;5461789;32;34229;-83
2022/10/21 11:20:29;;;;;;;5.35;4.25;;;;;;;13.13;55.41;100863.56;5461984;32;32411;-84
2022/10/21 11:23:35;;;;;;;8.75;4.20;;;;;;;13.01;56.27;100857.06;5474143;32;33773;-83
2022/10/21 11:26:44;;;;;;;8.60;4.45;;;;;;;12.86;56.93;100853.38;5464262;32;34259;-85
2022/10/21 11:30:18;;;;;;;7.45;4.37;;;;;;;13.04;56.81;100854.25;5459839;32;32610;-84
2022/10/21 11:33:42;;;;;;;7.90;5.07;;;;;;;12.84;56.31;100853.50;5467922;32;36375;-85
2022/10/21 11:37:19;;;;;;;5.50;4.53;;;;;;;12.99;55.73;100845.62;5459129;32;32205;-85
2022/10/21 11:40:22;;;;;;;5.90;4.47;;;;;;;12.88;55.85;100835.56;5466513;32;33715;-85
2022/10/21 11:44:09;;;;;;;8.93;4.03;;;;;;;12.80;56.47;100823.50;5447377;32;33071;-85
2022/10/21 11:47:36;;;;;;;5.93;4.05;;;;;;;12.64;56.77;100817.25;5445798;32;33736;-86
2022/10/21 11:51:24;;;;;;;6.85;4.03;;;;;;;12.45;57.09;100812.87;5458342;32;33987;-85
2022/10/21 11:54:48;;;;;;;7.40;4.18;;;;;;;12.35;57.41;100806.28;5452209;32;32739;-85
2022/10/21 11:58:44;;;;;;;7.25;3.60;;;;;;;12.65;56.27;100798.53;5465242;32;34711;-85
2022/10/21 12:02:12;;;;;;;5.93;3.85;;;;;;;12.64;56.58;100791.50;5464683;32;33994;-85
2022/10/21 12:05:24;;;;;;;10.88;4.12;;;;;;;12.76;55.63;100792.66;5462179;32;34211;-85
2022/10/21 12:08:35;;;;;;;5.05;3.85;;;;;;;12.62;56.11;100782.72;5458329;32;32778;-85
2022/10/21 12:11:50;;;;;;;8.63;3.95;;;;;;;12.46;55.60;100776.47;5465828;32;34677;-86
2022/10/21 12:14:59;;;;;;;6.22;3.80;;;;;;;12.31;56.65;100778.12;5462157;32;33963;-85
2022/10/21 12:18:03;;;;;;;6.65;3.90;;;;;;;12.55;55.50;100773.34;5459817;32;34297;-86
2022/10/21 12:21:19;;;;;;;5.25;4.00;;;;;;;12.56;55.75;100772.41;5465706;32;34443;-86
2022/10/21 12:24:55;;;;;;;6.75;4.15;;;;;;;12.40;56.09;100781.19;5462550;32;33072;-86
2022/10/21 12:28:25;;;;;;;12.55;4.10;;;;;;;12.59;55.15;100780.22;5473505;32;34186;-89
2022/10/21 12:31:37;;;;;;;8.38;3.87;;;;;;;12.50;54.25;100773.59;5456564;32;33640;-86
2022/10/21 12:34:40;;;;;;;6.20;4.15;;;;;;;12.56;53.44;100764.41;5483148;32;34970;-87
2022/10/21 12:37:50;;;;;;;4.07;3.45;;;;;;;12.54;53.95;100764.47;5471435;32;33380;-86
2022/10/21 12:41:20;;;;;;;7.55;3.97;;;;;;;12.51;53.88;100762.00;5484160;32;34863;-86
2022/10/21 12:44:27;;;;;;;8.60;4.20;;;;;;;12.38;53.59;100756.44;5470385;32;32900;-86
2022/10/21 12:47:38;;;;;;;6.22;4.25;;;;;;;12.12;54.50;100761.28;5481587;32;34400;-87
2022/10/21 12:50:57;;;;;;;5.70;4.10;;;;;;;12.11;54.47;100767.53;5559598;27;33403;-86
2022/10/21 12:54:25;;;;;;;5.97;4.30;;;;;;;11.96;54.63;100749.66;5711090;26;35315;-87
2022/10/21 13:01:50;;;;;;;6.03;4.05;;;;;;;12.06;55.09;100747.47;1195604;27;21284;-86
2022/10/21 13:04:56;;;;;;;8.23;4.12;;;;;;;12.05;56.67;100745.72;5428518;32;32406;-86
2022/10/21 13:08:27;;;;;;;20.30;4.57;;;;;;;12.04;55.61;100730.69;5446156;32;32552;-87
2022/10/21 13:11:32;;;;;;;8.25;4.53;;;;;;;12.18;55.70;100732.66;5450072;32;33887;-87
2022/10/21 13:14:58;;;;;;;8.32;4.03;;;;;;;12.15;56.35;100730.16;5609794;27;35053;-86
2022/10/21 13:18:01;;;;;;;6.50;4.15;;;;;;;12.14;56.75;100726.66;5482887;32;34347;-87
2022/10/21 13:24:33;;;;;;;7.43;4.45;;;;;;;12.04;57.09;100722.72;5613044;27;20077;-87
2022/10/21 14:51:04;;;;;;;8.25;5.55;;;;;;;11.96;59.23;100661.91;1464185;27;20125;-87
2022/10/21 14:54:41;;;;;;;9.57;5.78;;;;;;;11.85;59.75;100646.53;5546665;27;34602;-87
2022/10/21 14:57:52;;;;;;;9.52;6.12;;;;;;;11.82;59.77;100655.50;5495562;27;33902;-87
2022/10/21 15:00:57;;;;;;;15.13;5.55;;;;;;;11.75;60.30;100656.75;5471922;32;32892;-87
2022/10/21 15:04:00;;;;;;;10.07;5.30;;;;;;;11.75;60.51;100662.06;5486083;32;35109;-87
2022/10/21 15:07:03;;;;;;;8.35;5.30;;;;;;;11.64;62.49;100659.09;5483804;32;34301;-87
2022/10/21 15:10:16;;;;;;;7.75;5.53;;;;;;;11.56;62.20;100656.81;5484405;32;34115;-87
